sensor_id;sensor_type;location;lat;lon;timestamp;temperature;humidity
61207;DHT22;47070;49.212;8.084;2022-09-09T00:00:47;17.60;99.90
61207;DHT22;47070;49.212;8.084;2022-09-09T00:09:08;17.60;99.90
61207;DHT22;47070;49.212;8.084;2022-09-09T00:17:57;17.60;99.90
61207;DHT22;47070;49.212;8.084;2022-09-09T00:22:19;17.40;99.90
61207;DHT22;47070;49.212;8.084;2022-09-09T00:26:28;17.40;99.90
61207;DHT22;47070;49.212;8.084;2022-09-09T00:30:33;17.40;99.90
61207;DHT22;47070;49.212;8.084;2022-09-09T00:34:36;17.30;99.90
61207;DHT22;47070;49.212;8.084;2022-09-09T00:38:47;17.40;99.90
61207;DHT22;47070;49.212;8.084;2022-09-09T00:42:51;17.50;99.90
61207;DHT22;47070;49.212;8.084;2022-09-09T00:47:19;17.40;99.90
61207;DHT22;47070;49.212;8.084;2022-09-09T00:51:39;17.20;99.90
61207;DHT22;47070;49.212;8.084;2022-09-09T00:55:54;17.60;99.90
61207;DHT22;47070;49.212;8.084;2022-09-09T01:04:32;17.30;99.90
61207;DHT22;47070;49.212;8.084;2022-09-09T01:12:58;17.20;99.90
61207;DHT22;47070;49.212;8.084;2022-09-09T01:17:09;17.30;99.90
61207;DHT22;47070;49.212;8.084;2022-09-09T01:26:04;17.30;99.90
61207;DHT22;47070;49.212;8.084;2022-09-09T01:30:13;17.30;99.90
61207;DHT22;47070;49.212;8.084;2022-09-09T01:34:15;17.30;99.90
61207;DHT22;47070;49.212;8.084;2022-09-09T01:38:15;17.40;99.90
61207;DHT22;47070;49.212;8.084;2022-09-09T01:42:17;17.20;99.90
61207;DHT22;47070;49.212;8.084;2022-09-09T01:46:19;17.10;99.90
61207;DHT22;47070;49.212;8.084;2022-09-09T01:50:22;17.30;99.90
61207;DHT22;47070;49.212;8.084;2022-09-09T01:54:26;17.10;99.90
61207;DHT22;47070;49.212;8.084;2022-09-09T01:58:45;16.90;99.90
61207;DHT22;47070;49.212;8.084;2022-09-09T02:03:29;16.90;99.90
61207;DHT22;47070;49.212;8.084;2022-09-09T02:07:46;17.00;99.90
61207;DHT22;47070;49.212;8.084;2022-09-09T02:11:47;17.10;99.90
61207;DHT22;47070;49.212;8.084;2022-09-09T02:20:14;17.10;99.90
61207;DHT22;47070;49.212;8.084;2022-09-09T02:24:15;17.00;99.90
61207;DHT22;47070;49.212;8.084;2022-09-09T02:28:17;17.20;99.90
61207;DHT22;47070;49.212;8.084;2022-09-09T02:32:32;17.30;99.90
61207;DHT22;47070;49.212;8.084;2022-09-09T02:36:35;17.10;99.90
61207;DHT22;47070;49.212;8.084;2022-09-09T02:40:37;16.80;99.90
61207;DHT22;47070;49.212;8.084;2022-09-09T02:44:37;16.80;99.90
61207;DHT22;47070;49.212;8.084;2022-09-09T02:53:16;16.80;99.90
61207;DHT22;47070;49.212;8.084;2022-09-09T02:57:21;16.70;99.90
61207;DHT22;47070;49.212;8.084;2022-09-09T03:01:22;16.80;99.90
61207;DHT22;47070;49.212;8.084;2022-09-09T03:05:23;16.70;99.90
61207;DHT22;47070;49.212;8.084;2022-09-09T03:09:24;16.80;99.90
61207;DHT22;47070;49.212;8.084;2022-09-09T03:13:26;17.00;99.90
61207;DHT22;47070;49.212;8.084;2022-09-09T03:17:26;16.90;99.90
61207;DHT22;47070;49.212;8.084;2022-09-09T03:21:28;17.10;99.90
61207;DHT22;47070;49.212;8.084;2022-09-09T03:25:29;17.30;99.90
61207;DHT22;47070;49.212;8.084;2022-09-09T03:29:30;17.30;99.90
61207;DHT22;47070;49.212;8.084;2022-09-09T03:33:30;17.30;99.90
61207;DHT22;47070;49.212;8.084;2022-09-09T03:37:31;17.30;99.90
61207;DHT22;47070;49.212;8.084;2022-09-09T03:41:32;17.20;99.90
61207;DHT22;47070;49.212;8.084;2022-09-09T03:45:32;17.10;99.90
61207;DHT22;47070;49.212;8.084;2022-09-09T03:49:33;17.10;99.90
61207;DHT22;47070;49.212;8.084;2022-09-09T03:53:33;17.20;99.90
61207;DHT22;47070;49.212;8.084;2022-09-09T03:57:34;17.30;99.90
61207;DHT22;47070;49.212;8.084;2022-09-09T04:01:36;17.30;99.90
61207;DHT22;47070;49.212;8.084;2022-09-09T04:05:36;17.40;99.90
61207;DHT22;47070;49.212;8.084;2022-09-09T04:09:40;17.60;99.90
61207;DHT22;47070;49.212;8.084;2022-09-09T04:13:42;17.70;99.90
61207;DHT22;47070;49.212;8.084;2022-09-09T04:17:42;17.70;99.90
61207;DHT22;47070;49.212;8.084;2022-09-09T04:21:43;17.60;99.90
61207;DHT22;47070;49.212;8.084;2022-09-09T04:25:54;17.80;99.90
61207;DHT22;47070;49.212;8.084;2022-09-09T04:29:54;17.60;99.90
61207;DHT22;47070;49.212;8.084;2022-09-09T04:33:56;17.30;99.90
61207;DHT22;47070;49.212;8.084;2022-09-09T04:37:58;17.20;99.90
61207;DHT22;47070;49.212;8.084;2022-09-09T04:41:59;16.90;99.90
61207;DHT22;47070;49.212;8.084;2022-09-09T04:45:59;16.90;99.90
61207;DHT22;47070;49.212;8.084;2022-09-09T04:50:00;16.80;99.90
61207;DHT22;47070;49.212;8.084;2022-09-09T04:54:00;17.00;99.90
61207;DHT22;47070;49.212;8.084;2022-09-09T04:58:08;17.00;99.90
61207;DHT22;47070;49.212;8.084;2022-09-09T05:02:08;17.10;99.90
61207;DHT22;47070;49.212;8.084;2022-09-09T05:06:14;17.10;99.90
61207;DHT22;47070;49.212;8.084;2022-09-09T05:10:15;17.10;99.90
61207;DHT22;47070;49.212;8.084;2022-09-09T05:14:17;17.10;99.90
61207;DHT22;47070;49.212;8.084;2022-09-09T05:18:17;17.10;99.90
61207;DHT22;47070;49.212;8.084;2022-09-09T05:22:19;17.10;99.90
61207;DHT22;47070;49.212;8.084;2022-09-09T05:26:22;17.00;99.90
61207;DHT22;47070;49.212;8.084;2022-09-09T05:30:23;17.20;99.90
61207;DHT22;47070;49.212;8.084;2022-09-09T05:34:23;17.30;99.90
61207;DHT22;47070;49.212;8.084;2022-09-09T05:38:24;17.50;99.90
61207;DHT22;47070;49.212;8.084;2022-09-09T05:42:29;17.60;99.90
61207;DHT22;47070;49.212;8.084;2022-09-09T05:46:30;17.70;99.90
61207;DHT22;47070;49.212;8.084;2022-09-09T05:50:31;17.80;99.90
61207;DHT22;47070;49.212;8.084;2022-09-09T05:54:32;19.70;99.90
61207;DHT22;47070;49.212;8.084;2022-09-09T05:58:34;20.40;99.90
61207;DHT22;47070;49.212;8.084;2022-09-09T06:02:34;20.90;99.90
61207;DHT22;47070;49.212;8.084;2022-09-09T06:06:38;21.40;99.90
61207;DHT22;47070;49.212;8.084;2022-09-09T06:10:39;19.60;99.90
61207;DHT22;47070;49.212;8.084;2022-09-09T06:14:40;19.20;99.90
61207;DHT22;47070;49.212;8.084;2022-09-09T06:18:41;18.80;99.90
61207;DHT22;47070;49.212;8.084;2022-09-09T06:22:41;18.60;99.90
61207;DHT22;47070;49.212;8.084;2022-09-09T06:26:42;18.30;99.90
61207;DHT22;47070;49.212;8.084;2022-09-09T06:30:43;18.10;99.90
61207;DHT22;47070;49.212;8.084;2022-09-09T06:34:43;17.90;99.90
61207;DHT22;47070;49.212;8.084;2022-09-09T06:38:46;18.20;99.90
61207;DHT22;47070;49.212;8.084;2022-09-09T06:42:47;18.40;99.90
61207;DHT22;47070;49.212;8.084;2022-09-09T06:46:48;18.40;99.90
61207;DHT22;47070;49.212;8.084;2022-09-09T06:50:48;18.50;99.90
61207;DHT22;47070;49.212;8.084;2022-09-09T06:54:52;18.60;99.90
61207;DHT22;47070;49.212;8.084;2022-09-09T06:58:55;18.70;99.90
61207;DHT22;47070;49.212;8.084;2022-09-09T07:02:56;18.40;99.90
61207;DHT22;47070;49.212;8.084;2022-09-09T07:06:57;18.70;99.90
61207;DHT22;47070;49.212;8.084;2022-09-09T07:11:06;18.80;99.90
61207;DHT22;47070;49.212;8.084;2022-09-09T07:15:07;18.60;99.90
61207;DHT22;47070;49.212;8.084;2022-09-09T07:19:09;18.70;99.90
61207;DHT22;47070;49.212;8.084;2022-09-09T07:23:09;18.90;99.90
61207;DHT22;47070;49.212;8.084;2022-09-09T07:27:10;20.30;99.90
61207;DHT22;47070;49.212;8.084;2022-09-09T07:31:16;21.00;99.90
61207;DHT22;47070;49.212;8.084;2022-09-09T07:35:16;21.30;99.90
61207;DHT22;47070;49.212;8.084;2022-09-09T07:39:17;21.80;99.90
61207;DHT22;47070;49.212;8.084;2022-09-09T07:43:18;22.40;99.90
61207;DHT22;47070;49.212;8.084;2022-09-09T07:47:18;21.90;99.90
61207;DHT22;47070;49.212;8.084;2022-09-09T07:51:24;21.60;99.90
61207;DHT22;47070;49.212;8.084;2022-09-09T07:55:25;21.70;99.90
61207;DHT22;47070;49.212;8.084;2022-09-09T07:59:25;21.80;99.90
61207;DHT22;47070;49.212;8.084;2022-09-09T08:03:26;21.00;99.90
61207;DHT22;47070;49.212;8.084;2022-09-09T08:07:26;20.20;99.90
61207;DHT22;47070;49.212;8.084;2022-09-09T08:11:29;19.70;99.90
61207;DHT22;47070;49.212;8.084;2022-09-09T08:15:30;19.50;99.90
61207;DHT22;47070;49.212;8.084;2022-09-09T08:19:31;19.60;99.90
61207;DHT22;47070;49.212;8.084;2022-09-09T08:23:34;19.60;99.90
61207;DHT22;47070;49.212;8.084;2022-09-09T08:27:35;19.50;99.90
61207;DHT22;47070;49.212;8.084;2022-09-09T08:31:38;19.60;99.90
61207;DHT22;47070;49.212;8.084;2022-09-09T08:35:39;19.70;99.90
61207;DHT22;47070;49.212;8.084;2022-09-09T08:39:39;19.80;99.90
61207;DHT22;47070;49.212;8.084;2022-09-09T08:43:43;20.00;99.90
61207;DHT22;47070;49.212;8.084;2022-09-09T08:48:10;20.20;99.90
61207;DHT22;47070;49.212;8.084;2022-09-09T08:52:21;20.20;99.90
61207;DHT22;47070;49.212;8.084;2022-09-09T08:56:24;20.40;99.90
61207;DHT22;47070;49.212;8.084;2022-09-09T09:00:44;20.20;99.90
61207;DHT22;47070;49.212;8.084;2022-09-09T09:09:26;20.00;99.90
61207;DHT22;47070;49.212;8.084;2022-09-09T09:17:54;19.60;99.90
61207;DHT22;47070;49.212;8.084;2022-09-09T09:26:07;20.00;99.90
61207;DHT22;47070;49.212;8.084;2022-09-09T09:30:18;20.00;99.90
61207;DHT22;47070;49.212;8.084;2022-09-09T09:34:19;20.20;99.90
61207;DHT22;47070;49.212;8.084;2022-09-09T09:38:26;20.50;99.90
61207;DHT22;47070;49.212;8.084;2022-09-09T09:42:28;21.00;99.90
61207;DHT22;47070;49.212;8.084;2022-09-09T09:46:28;21.20;99.90
61207;DHT22;47070;49.212;8.084;2022-09-09T09:50:30;21.40;99.90
61207;DHT22;47070;49.212;8.084;2022-09-09T09:54:34;21.20;99.90
61207;DHT22;47070;49.212;8.084;2022-09-09T10:02:47;21.40;99.90
61207;DHT22;47070;49.212;8.084;2022-09-09T10:06:49;21.50;99.90
61207;DHT22;47070;49.212;8.084;2022-09-09T10:15:43;21.80;99.90
61207;DHT22;47070;49.212;8.084;2022-09-09T10:19:57;21.80;99.90
61207;DHT22;47070;49.212;8.084;2022-09-09T10:24:25;21.40;99.90
61207;DHT22;47070;49.212;8.084;2022-09-09T10:28:37;21.40;99.90
61207;DHT22;47070;49.212;8.084;2022-09-09T10:33:07;21.70;99.90
61207;DHT22;47070;49.212;8.084;2022-09-09T10:41:58;22.20;99.90
61207;DHT22;47070;49.212;8.084;2022-09-09T10:46:34;22.20;99.90
61207;DHT22;47070;49.212;8.084;2022-09-09T10:51:00;21.80;99.90
61207;DHT22;47070;49.212;8.084;2022-09-09T10:55:15;22.00;99.90
61207;DHT22;47070;49.212;8.084;2022-09-09T10:59:20;22.10;99.90
61207;DHT22;47070;49.212;8.084;2022-09-09T11:03:28;22.30;99.90
61207;DHT22;47070;49.212;8.084;2022-09-09T11:08:05;22.30;99.90
61207;DHT22;47070;49.212;8.084;2022-09-09T11:12:15;22.70;99.90
61207;DHT22;47070;49.212;8.084;2022-09-09T11:16:40;22.80;99.90
61207;DHT22;47070;49.212;8.084;2022-09-09T11:20:43;22.70;99.90
61207;DHT22;47070;49.212;8.084;2022-09-09T11:25:01;22.70;99.90
61207;DHT22;47070;49.212;8.084;2022-09-09T11:29:16;23.00;99.90
61207;DHT22;47070;49.212;8.084;2022-09-09T11:33:30;22.30;99.90
61207;DHT22;47070;49.212;8.084;2022-09-09T11:37:44;22.40;99.90
61207;DHT22;47070;49.212;8.084;2022-09-09T11:41:48;22.80;99.90
61207;DHT22;47070;49.212;8.084;2022-09-09T11:45:54;22.90;99.90
61207;DHT22;47070;49.212;8.084;2022-09-09T11:54:28;23.70;99.90
61207;DHT22;47070;49.212;8.084;2022-09-09T11:58:33;24.30;99.90
61207;DHT22;47070;49.212;8.084;2022-09-09T12:02:36;24.80;99.90
61207;DHT22;47070;49.212;8.084;2022-09-09T12:06:52;24.80;99.90
61207;DHT22;47070;49.212;8.084;2022-09-09T12:10:58;24.10;99.90
61207;DHT22;47070;49.212;8.084;2022-09-09T12:19:20;23.00;99.90
61207;DHT22;47070;49.212;8.084;2022-09-09T12:23:30;22.20;99.90
61207;DHT22;47070;49.212;8.084;2022-09-09T12:27:58;21.70;99.90
61207;DHT22;47070;49.212;8.084;2022-09-09T12:32:15;21.50;99.90
61207;DHT22;47070;49.212;8.084;2022-09-09T12:36:27;21.30;99.90
61207;DHT22;47070;49.212;8.084;2022-09-09T12:40:33;20.80;99.90
61207;DHT22;47070;49.212;8.084;2022-09-09T12:44:39;20.70;99.90
61207;DHT22;47070;49.212;8.084;2022-09-09T12:48:50;20.70;99.90
61207;DHT22;47070;49.212;8.084;2022-09-09T12:52:52;20.40;99.90
61207;DHT22;47070;49.212;8.084;2022-09-09T12:56:54;20.80;99.90
61207;DHT22;47070;49.212;8.084;2022-09-09T13:00:56;21.30;99.90
61207;DHT22;47070;49.212;8.084;2022-09-09T13:05:12;22.30;99.90
61207;DHT22;47070;49.212;8.084;2022-09-09T13:09:13;22.80;99.90
61207;DHT22;47070;49.212;8.084;2022-09-09T13:13:20;23.50;99.90
61207;DHT22;47070;49.212;8.084;2022-09-09T13:17:24;24.60;99.90
61207;DHT22;47070;49.212;8.084;2022-09-09T13:21:38;25.60;99.90
61207;DHT22;47070;49.212;8.084;2022-09-09T13:25:38;25.90;99.90
61207;DHT22;47070;49.212;8.084;2022-09-09T13:29:39;25.90;99.90
61207;DHT22;47070;49.212;8.084;2022-09-09T13:33:40;26.20;99.90
61207;DHT22;47070;49.212;8.084;2022-09-09T13:37:41;26.10;99.90
61207;DHT22;47070;49.212;8.084;2022-09-09T13:41:43;26.60;99.90
61207;DHT22;47070;49.212;8.084;2022-09-09T13:45:55;26.70;99.90
61207;DHT22;47070;49.212;8.084;2022-09-09T13:49:56;26.50;99.90
61207;DHT22;47070;49.212;8.084;2022-09-09T13:53:57;26.60;99.90
61207;DHT22;47070;49.212;8.084;2022-09-09T13:58:03;25.30;99.90
61207;DHT22;47070;49.212;8.084;2022-09-09T14:02:05;24.50;99.90
61207;DHT22;47070;49.212;8.084;2022-09-09T14:06:06;25.40;99.90
61207;DHT22;47070;49.212;8.084;2022-09-09T14:10:07;24.60;99.90
61207;DHT22;47070;49.212;8.084;2022-09-09T14:14:08;24.00;99.90
61207;DHT22;47070;49.212;8.084;2022-09-09T14:18:11;23.60;99.90
61207;DHT22;47070;49.212;8.084;2022-09-09T14:22:14;23.40;99.90
61207;DHT22;47070;49.212;8.084;2022-09-09T14:26:15;23.30;99.90
61207;DHT22;47070;49.212;8.084;2022-09-09T14:30:15;23.30;99.90
61207;DHT22;47070;49.212;8.084;2022-09-09T14:34:16;23.50;99.90
61207;DHT22;47070;49.212;8.084;2022-09-09T14:38:16;23.20;99.90
61207;DHT22;47070;49.212;8.084;2022-09-09T14:42:17;23.10;99.90
61207;DHT22;47070;49.212;8.084;2022-09-09T14:46:19;23.10;99.90
61207;DHT22;47070;49.212;8.084;2022-09-09T14:50:22;23.10;99.90
61207;DHT22;47070;49.212;8.084;2022-09-09T14:54:22;22.20;99.90
61207;DHT22;47070;49.212;8.084;2022-09-09T14:58:23;21.50;99.90
61207;DHT22;47070;49.212;8.084;2022-09-09T15:02:23;21.60;99.90
61207;DHT22;47070;49.212;8.084;2022-09-09T15:06:25;21.90;99.90
61207;DHT22;47070;49.212;8.084;2022-09-09T15:10:26;22.20;99.90
61207;DHT22;47070;49.212;8.084;2022-09-09T15:14:27;22.30;99.90
61207;DHT22;47070;49.212;8.084;2022-09-09T15:18:28;22.20;99.90
61207;DHT22;47070;49.212;8.084;2022-09-09T15:22:29;21.90;99.90
61207;DHT22;47070;49.212;8.084;2022-09-09T15:26:29;21.90;99.90
61207;DHT22;47070;49.212;8.084;2022-09-09T15:30:30;21.60;99.90
61207;DHT22;47070;49.212;8.084;2022-09-09T15:34:30;22.20;99.90
61207;DHT22;47070;49.212;8.084;2022-09-09T15:38:31;22.10;99.90
61207;DHT22;47070;49.212;8.084;2022-09-09T15:42:32;22.00;99.90
61207;DHT22;47070;49.212;8.084;2022-09-09T15:46:44;21.90;99.90
61207;DHT22;47070;49.212;8.084;2022-09-09T15:50:44;21.30;99.90
61207;DHT22;47070;49.212;8.084;2022-09-09T15:54:45;21.20;99.90
61207;DHT22;47070;49.212;8.084;2022-09-09T15:58:45;21.20;99.90
61207;DHT22;47070;49.212;8.084;2022-09-09T16:02:47;20.80;99.90
61207;DHT22;47070;49.212;8.084;2022-09-09T16:06:47;20.50;99.90
61207;DHT22;47070;49.212;8.084;2022-09-09T16:10:48;20.40;99.90
61207;DHT22;47070;49.212;8.084;2022-09-09T16:14:48;21.00;99.90
61207;DHT22;47070;49.212;8.084;2022-09-09T16:18:54;20.70;99.90
61207;DHT22;47070;49.212;8.084;2022-09-09T16:22:55;20.80;99.90
61207;DHT22;47070;49.212;8.084;2022-09-09T16:26:57;20.60;99.90
61207;DHT22;47070;49.212;8.084;2022-09-09T16:30:58;21.00;99.90
61207;DHT22;47070;49.212;8.084;2022-09-09T16:34:58;21.20;99.90
61207;DHT22;47070;49.212;8.084;2022-09-09T16:39:04;21.30;99.90
61207;DHT22;47070;49.212;8.084;2022-09-09T16:43:05;21.30;99.90
61207;DHT22;47070;49.212;8.084;2022-09-09T16:47:06;21.50;99.90
61207;DHT22;47070;49.212;8.084;2022-09-09T16:51:10;21.40;99.90
61207;DHT22;47070;49.212;8.084;2022-09-09T16:55:11;21.50;99.90
61207;DHT22;47070;49.212;8.084;2022-09-09T16:59:14;21.20;99.90
61207;DHT22;47070;49.212;8.084;2022-09-09T17:03:15;21.10;99.90
61207;DHT22;47070;49.212;8.084;2022-09-09T17:07:16;21.00;99.90
61207;DHT22;47070;49.212;8.084;2022-09-09T17:11:19;20.90;99.90
61207;DHT22;47070;49.212;8.084;2022-09-09T17:15:19;20.80;99.90
61207;DHT22;47070;49.212;8.084;2022-09-09T17:19:21;20.70;99.90
61207;DHT22;47070;49.212;8.084;2022-09-09T17:23:21;20.60;99.90
61207;DHT22;47070;49.212;8.084;2022-09-09T17:27:22;20.70;99.90
61207;DHT22;47070;49.212;8.084;2022-09-09T17:31:23;20.70;99.90
61207;DHT22;47070;49.212;8.084;2022-09-09T17:35:24;20.50;99.90
61207;DHT22;47070;49.212;8.084;2022-09-09T17:39:25;20.40;99.90
61207;DHT22;47070;49.212;8.084;2022-09-09T17:43:25;20.10;99.90
61207;DHT22;47070;49.212;8.084;2022-09-09T17:47:26;20.00;99.90
61207;DHT22;47070;49.212;8.084;2022-09-09T17:51:29;19.80;99.90
61207;DHT22;47070;49.212;8.084;2022-09-09T17:55:30;19.80;99.90
61207;DHT22;47070;49.212;8.084;2022-09-09T17:59:32;19.70;99.90
61207;DHT22;47070;49.212;8.084;2022-09-09T18:03:37;19.90;99.90
61207;DHT22;47070;49.212;8.084;2022-09-09T18:07:39;20.20;99.90
61207;DHT22;47070;49.212;8.084;2022-09-09T18:11:45;20.60;99.90
61207;DHT22;47070;49.212;8.084;2022-09-09T18:15:46;20.30;99.90
61207;DHT22;47070;49.212;8.084;2022-09-09T18:19:48;19.80;99.90
61207;DHT22;47070;49.212;8.084;2022-09-09T18:23:49;19.60;99.90
61207;DHT22;47070;49.212;8.084;2022-09-09T18:27:51;19.50;99.90
61207;DHT22;47070;49.212;8.084;2022-09-09T18:31:54;19.30;99.90
61207;DHT22;47070;49.212;8.084;2022-09-09T18:35:55;19.50;99.90
61207;DHT22;47070;49.212;8.084;2022-09-09T18:39:56;19.20;99.90
61207;DHT22;47070;49.212;8.084;2022-09-09T18:43:59;19.10;99.90
61207;DHT22;47070;49.212;8.084;2022-09-09T18:48:00;19.00;99.90
61207;DHT22;47070;49.212;8.084;2022-09-09T18:52:01;19.30;99.90
61207;DHT22;47070;49.212;8.084;2022-09-09T18:56:06;19.10;99.90
61207;DHT22;47070;49.212;8.084;2022-09-09T19:00:07;19.60;99.90
61207;DHT22;47070;49.212;8.084;2022-09-09T19:04:09;19.20;99.90
61207;DHT22;47070;49.212;8.084;2022-09-09T19:08:10;18.90;99.90
61207;DHT22;47070;49.212;8.084;2022-09-09T19:12:11;18.70;99.90
61207;DHT22;47070;49.212;8.084;2022-09-09T19:16:13;18.60;99.90
61207;DHT22;47070;49.212;8.084;2022-09-09T19:20:14;18.60;99.90
61207;DHT22;47070;49.212;8.084;2022-09-09T19:24:23;18.30;99.90
61207;DHT22;47070;49.212;8.084;2022-09-09T19:28:24;18.30;99.90
61207;DHT22;47070;49.212;8.084;2022-09-09T19:32:25;18.30;99.90
61207;DHT22;47070;49.212;8.084;2022-09-09T19:36:26;18.20;99.90
61207;DHT22;47070;49.212;8.084;2022-09-09T19:40:30;18.70;99.90
61207;DHT22;47070;49.212;8.084;2022-09-09T19:44:34;18.40;99.90
61207;DHT22;47070;49.212;8.084;2022-09-09T19:48:36;18.20;99.90
61207;DHT22;47070;49.212;8.084;2022-09-09T19:52:38;18.20;99.90
61207;DHT22;47070;49.212;8.084;2022-09-09T19:56:39;18.10;99.90
61207;DHT22;47070;49.212;8.084;2022-09-09T20:00:40;18.10;99.90
61207;DHT22;47070;49.212;8.084;2022-09-09T20:04:41;18.20;99.90
61207;DHT22;47070;49.212;8.084;2022-09-09T20:08:44;18.50;99.90
61207;DHT22;47070;49.212;8.084;2022-09-09T20:12:45;18.90;99.90
61207;DHT22;47070;49.212;8.084;2022-09-09T20:16:45;18.60;99.90
61207;DHT22;47070;49.212;8.084;2022-09-09T20:20:46;18.40;99.90
61207;DHT22;47070;49.212;8.084;2022-09-09T20:24:47;18.60;99.90
61207;DHT22;47070;49.212;8.084;2022-09-09T20:28:50;18.80;99.90
61207;DHT22;47070;49.212;8.084;2022-09-09T20:32:50;18.60;99.90
61207;DHT22;47070;49.212;8.084;2022-09-09T20:36:51;18.80;99.90
61207;DHT22;47070;49.212;8.084;2022-09-09T20:40:53;18.90;99.90
61207;DHT22;47070;49.212;8.084;2022-09-09T20:44:56;18.50;99.90
61207;DHT22;47070;49.212;8.084;2022-09-09T20:48:56;18.10;99.90
61207;DHT22;47070;49.212;8.084;2022-09-09T20:52:57;18.20;99.90
61207;DHT22;47070;49.212;8.084;2022-09-09T20:56:58;18.10;99.90
61207;DHT22;47070;49.212;8.084;2022-09-09T21:01:03;18.10;99.90
61207;DHT22;47070;49.212;8.084;2022-09-09T21:05:05;18.40;99.90
61207;DHT22;47070;49.212;8.084;2022-09-09T21:09:06;18.40;99.90
61207;DHT22;47070;49.212;8.084;2022-09-09T21:13:06;18.30;99.90
61207;DHT22;47070;49.212;8.084;2022-09-09T21:17:07;18.20;99.90
61207;DHT22;47070;49.212;8.084;2022-09-09T21:21:07;18.00;99.90
61207;DHT22;47070;49.212;8.084;2022-09-09T21:25:08;17.80;99.90
61207;DHT22;47070;49.212;8.084;2022-09-09T21:29:09;17.70;99.90
61207;DHT22;47070;49.212;8.084;2022-09-09T21:33:10;17.70;99.90
61207;DHT22;47070;49.212;8.084;2022-09-09T21:37:11;17.70;99.90
61207;DHT22;47070;49.212;8.084;2022-09-09T21:41:13;17.70;99.90
61207;DHT22;47070;49.212;8.084;2022-09-09T21:45:14;17.60;99.90
61207;DHT22;47070;49.212;8.084;2022-09-09T21:49:14;17.70;99.90
61207;DHT22;47070;49.212;8.084;2022-09-09T21:53:15;17.70;99.90
61207;DHT22;47070;49.212;8.084;2022-09-09T21:57:18;17.70;99.90
61207;DHT22;47070;49.212;8.084;2022-09-09T22:01:19;17.50;99.90
61207;DHT22;47070;49.212;8.084;2022-09-09T22:05:20;17.50;99.90
61207;DHT22;47070;49.212;8.084;2022-09-09T22:09:20;17.30;99.90
61207;DHT22;47070;49.212;8.084;2022-09-09T22:13:21;17.30;99.90
61207;DHT22;47070;49.212;8.084;2022-09-09T22:17:21;17.20;99.90
61207;DHT22;47070;49.212;8.084;2022-09-09T22:21:25;17.10;99.90
61207;DHT22;47070;49.212;8.084;2022-09-09T22:25:31;17.20;99.90
61207;DHT22;47070;49.212;8.084;2022-09-09T22:29:31;17.10;99.90
61207;DHT22;47070;49.212;8.084;2022-09-09T22:33:32;17.10;99.90
61207;DHT22;47070;49.212;8.084;2022-09-09T22:37:34;17.10;99.90
61207;DHT22;47070;49.212;8.084;2022-09-09T22:41:34;17.10;99.90
61207;DHT22;47070;49.212;8.084;2022-09-09T22:45:35;16.80;99.90
61207;DHT22;47070;49.212;8.084;2022-09-09T22:49:36;16.90;99.90
61207;DHT22;47070;49.212;8.084;2022-09-09T22:53:38;16.80;99.90
61207;DHT22;47070;49.212;8.084;2022-09-09T22:57:40;16.70;99.90
61207;DHT22;47070;49.212;8.084;2022-09-09T23:01:41;16.80;99.90
61207;DHT22;47070;49.212;8.084;2022-09-09T23:05:42;16.80;99.90
61207;DHT22;47070;49.212;8.084;2022-09-09T23:09:42;16.80;99.90
61207;DHT22;47070;49.212;8.084;2022-09-09T23:13:49;16.90;99.90
61207;DHT22;47070;49.212;8.084;2022-09-09T23:17:51;16.80;99.90
61207;DHT22;47070;49.212;8.084;2022-09-09T23:21:52;17.00;99.90
61207;DHT22;47070;49.212;8.084;2022-09-09T23:25:52;17.00;99.90
61207;DHT22;47070;49.212;8.084;2022-09-09T23:29:53;17.20;99.90
61207;DHT22;47070;49.212;8.084;2022-09-09T23:33:55;17.30;99.90
61207;DHT22;47070;49.212;8.084;2022-09-09T23:37:56;17.20;99.90
61207;DHT22;47070;49.212;8.084;2022-09-09T23:41:57;17.00;99.90
61207;DHT22;47070;49.212;8.084;2022-09-09T23:45:58;17.10;99.90
61207;DHT22;47070;49.212;8.084;2022-09-09T23:50:00;17.10;99.90
61207;DHT22;47070;49.212;8.084;2022-09-09T23:54:01;17.20;99.90
61207;DHT22;47070;49.212;8.084;2022-09-09T23:58:04;17.30;99.90
